createdAt,value
2018-03-30T00:01:02.109Z,990.54
2018-03-30T00:02:08.112Z,990.54
2018-03-30T00:03:14.098Z,990.55
2018-03-30T00:04:20.071Z,990.57
2018-03-30T00:05:26.056Z,990.59
2018-03-30T00:06:32.035Z,990.63
2018-03-30T00:07:39.010Z,990.64
2018-03-30T00:08:44.025Z,990.60
2018-03-30T00:09:49.980Z,990.58
2018-03-30T00:10:55.960Z,990.61
2018-03-30T00:12:01.946Z,990.57
2018-03-30T00:13:07.959Z,990.59
2018-03-30T00:14:14.407Z,990.58
2018-03-30T00:15:19.884Z,990.53
2018-03-30T00:16:25.861Z,990.51
2018-03-30T00:17:31.854Z,990.51
2018-03-30T00:18:37.865Z,990.58
2018-03-30T00:19:43.809Z,990.54
2018-03-30T00:20:49.793Z,990.56
2018-03-30T00:21:56.275Z,990.56
2018-03-30T00:23:01.760Z,990.61
2018-03-30T00:24:07.782Z,990.59
2018-03-30T00:25:13.732Z,990.60
2018-03-30T00:26:20.204Z,990.57
2018-03-30T00:27:25.698Z,990.55
2018-03-30T00:28:31.659Z,990.56
2018-03-30T00:29:37.670Z,990.52
2018-03-30T00:30:44.119Z,990.53
2018-03-30T00:31:49.623Z,990.53
2018-03-30T00:32:55.594Z,990.52
2018-03-30T00:34:02.095Z,990.54
2018-03-30T00:35:07.557Z,990.51
2018-03-30T00:36:13.549Z,990.53
2018-03-30T00:37:19.525Z,990.50
2018-03-30T00:38:25.516Z,990.45
2018-03-30T00:39:31.513Z,990.44
2018-03-30T00:40:37.471Z,990.39
2018-03-30T00:41:43.463Z,990.37
2018-03-30T00:42:49.441Z,990.39
2018-03-30T00:43:55.421Z,990.35
2018-03-30T00:45:01.923Z,990.32
2018-03-30T00:46:07.398Z,990.35
2018-03-30T00:47:13.370Z,990.29
2018-03-30T00:48:19.367Z,990.30
2018-03-30T00:49:25.838Z,990.26
2018-03-30T00:50:31.352Z,990.23
2018-03-30T00:51:37.321Z,990.25
2018-03-30T00:52:43.296Z,990.21
2018-03-30T00:53:49.781Z,990.24
2018-03-30T00:54:55.265Z,990.18
2018-03-30T00:56:01.265Z,990.17
2018-03-30T00:57:07.239Z,990.16
2018-03-30T00:58:13.235Z,990.17
2018-03-30T00:59:19.207Z,990.20
2018-03-30T01:00:25.227Z,990.17
2018-03-30T01:01:31.177Z,990.17
2018-03-30T01:02:37.662Z,990.19
2018-03-30T01:03:43.140Z,990.21
2018-03-30T01:04:49.145Z,990.19
2018-03-30T01:05:55.134Z,990.19
2018-03-30T01:07:01.105Z,990.15
2018-03-30T01:08:07.095Z,990.11
2018-03-30T01:09:13.072Z,990.08
2018-03-30T01:10:19.084Z,990.03
2018-03-30T01:11:25.062Z,990.08
2018-03-30T01:12:31.041Z,990.01
2018-03-30T01:13:37.033Z,990.00
2018-03-30T01:14:43.014Z,989.99
2018-03-30T01:15:49.022Z,989.97
2018-03-30T01:16:54.996Z,989.96
2018-03-30T01:18:00.976Z,989.91
2018-03-30T01:19:06.973Z,989.92
2018-03-30T01:20:12.975Z,989.89
2018-03-30T01:21:18.954Z,989.89
2018-03-30T01:22:24.938Z,989.87
2018-03-30T01:23:30.946Z,989.84
2018-03-30T01:24:37.407Z,989.84
2018-03-30T01:25:42.919Z,989.83
2018-03-30T01:26:48.889Z,989.87
2018-03-30T01:27:54.880Z,989.89
2018-03-30T01:29:00.868Z,989.84
2018-03-30T01:30:06.929Z,989.89
2018-03-30T01:31:12.868Z,989.87
2018-03-30T01:32:18.929Z,989.89
2018-03-30T01:33:24.936Z,989.79
2018-03-30T01:34:31.814Z,989.78
2018-03-30T01:35:36.813Z,989.75
2018-03-30T01:36:42.785Z,989.72
2018-03-30T01:37:48.774Z,989.68
2018-03-30T01:38:55.762Z,989.69
2018-03-30T01:40:00.762Z,989.66
2018-03-30T01:41:06.754Z,989.64
2018-03-30T01:42:12.721Z,989.69
2018-03-30T01:43:18.720Z,989.71
2018-03-30T01:44:24.708Z,989.72
2018-03-30T01:45:30.901Z,989.77
2018-03-30T01:46:36.680Z,989.78
2018-03-30T01:47:42.666Z,989.79
2018-03-30T01:48:48.648Z,989.81
2018-03-30T01:49:54.639Z,989.76
2018-03-30T01:51:00.691Z,989.80
2018-03-30T01:52:07.131Z,989.77
2018-03-30T01:53:13.111Z,989.76
2018-03-30T01:54:18.600Z,989.82
2018-03-30T01:55:24.613Z,989.82
2018-03-30T01:56:30.581Z,989.79
2018-03-30T01:57:37.068Z,989.80
2018-03-30T01:58:42.567Z,989.85
2018-03-30T01:59:48.572Z,989.83
2018-03-30T02:00:54.562Z,989.86
2018-03-30T02:02:00.546Z,989.75
2018-03-30T02:03:06.522Z,989.79
2018-03-30T02:04:12.506Z,989.80
2018-03-30T02:05:18.516Z,989.77
2018-03-30T02:06:24.503Z,989.77
2018-03-30T02:07:30.993Z,989.81
2018-03-30T02:08:36.470Z,989.73
2018-03-30T02:09:42.473Z,989.77
2018-03-30T02:10:48.466Z,989.76
2018-03-30T02:11:54.438Z,989.79
2018-03-30T02:13:00.425Z,989.80
2018-03-30T02:14:06.404Z,989.74
2018-03-30T02:15:12.404Z,989.73
2018-03-30T02:16:18.398Z,989.71
2018-03-30T02:17:24.380Z,989.74
2018-03-30T02:18:30.360Z,989.72
2018-03-30T02:19:36.352Z,989.72
2018-03-30T02:20:42.380Z,989.71
2018-03-30T02:21:48.342Z,989.68
2018-03-30T02:22:54.343Z,989.72
2018-03-30T02:24:00.320Z,989.65
2018-03-30T02:25:06.299Z,989.70
2018-03-30T02:26:12.330Z,989.72
2018-03-30T02:27:18.780Z,989.68
2018-03-30T02:28:24.292Z,989.70
2018-03-30T02:29:30.267Z,989.64
2018-03-30T02:30:36.276Z,989.66
2018-03-30T02:31:42.242Z,989.64
2018-03-30T02:32:48.241Z,989.60
2018-03-30T02:33:54.230Z,989.61
2018-03-30T02:35:00.222Z,989.63
2018-03-30T02:36:06.250Z,989.58
2018-03-30T02:37:12.208Z,989.59
2018-03-30T02:38:18.206Z,989.63
2018-03-30T02:39:24.202Z,989.60
2018-03-30T02:40:30.205Z,989.58
2018-03-30T02:41:36.657Z,989.56
2018-03-30T02:42:42.155Z,989.57
2018-03-30T02:43:48.147Z,989.57
2018-03-30T02:44:54.133Z,989.55
2018-03-30T02:46:00.138Z,989.50
2018-03-30T02:47:06.105Z,989.48
2018-03-30T02:48:12.102Z,989.51
2018-03-30T02:49:18.587Z,989.46
2018-03-30T02:50:24.070Z,989.50
2018-03-30T02:51:30.089Z,989.49
2018-03-30T02:52:36.054Z,989.49
2018-03-30T02:53:42.040Z,989.47
2018-03-30T02:54:48.033Z,989.47
2018-03-30T02:55:54.035Z,989.44
2018-03-30T02:57:00.011Z,989.42
2018-03-30T02:58:05.997Z,989.39
2018-03-30T02:59:11.979Z,989.42
2018-03-30T03:00:17.991Z,989.42
2018-03-30T03:01:23.973Z,989.38
2018-03-30T03:02:30.944Z,989.37
2018-03-30T03:03:35.927Z,989.32
2018-03-30T03:04:41.907Z,989.34
2018-03-30T03:05:47.922Z,989.36
2018-03-30T03:06:53.880Z,989.29
2018-03-30T03:07:59.870Z,989.34
2018-03-30T03:09:05.863Z,989.30
2018-03-30T03:10:11.833Z,989.30
2018-03-30T03:11:17.841Z,989.30
2018-03-30T03:12:23.806Z,989.25
2018-03-30T03:13:29.795Z,989.25
2018-03-30T03:14:35.773Z,989.26
2018-03-30T03:15:42.268Z,989.23
2018-03-30T03:16:47.771Z,989.23
2018-03-30T03:17:54.224Z,989.22
2018-03-30T03:18:59.708Z,989.23
2018-03-30T03:20:05.683Z,989.23
2018-03-30T03:21:11.712Z,989.20
2018-03-30T03:22:17.651Z,989.20
2018-03-30T03:23:23.645Z,989.25
2018-03-30T03:24:29.621Z,989.23
2018-03-30T03:25:35.613Z,989.22
2018-03-30T03:26:41.614Z,989.19
2018-03-30T03:27:47.573Z,989.16
2018-03-30T03:28:54.037Z,989.16
2018-03-30T03:29:59.532Z,989.22
2018-03-30T03:31:05.509Z,989.25
2018-03-30T03:32:11.535Z,989.25
2018-03-30T03:33:17.981Z,989.21
2018-03-30T03:34:23.461Z,989.19
2018-03-30T03:35:30.451Z,989.17
2018-03-30T03:36:35.461Z,989.19
2018-03-30T03:37:41.406Z,989.19
2018-03-30T03:38:47.415Z,989.17
2018-03-30T03:39:53.376Z,989.20
2018-03-30T03:40:59.365Z,989.16
2018-03-30T03:42:05.364Z,989.13
2018-03-30T03:43:11.324Z,989.15
2018-03-30T03:44:17.500Z,989.12
2018-03-30T03:45:23.295Z,989.11
2018-03-30T03:46:29.778Z,989.09
2018-03-30T03:47:35.290Z,989.06
2018-03-30T03:48:41.247Z,988.99
2018-03-30T03:49:47.245Z,988.99
2018-03-30T03:50:53.223Z,989.03
2018-03-30T03:51:59.240Z,988.94
2018-03-30T03:53:05.701Z,988.97
2018-03-30T03:54:11.183Z,988.93
2018-03-30T03:55:17.164Z,988.93
2018-03-30T03:56:24.600Z,988.92
2018-03-30T03:57:29.156Z,988.88
2018-03-30T03:58:35.126Z,988.86
2018-03-30T03:59:41.108Z,988.83
2018-03-30T04:00:47.092Z,988.84
2018-03-30T04:01:53.078Z,988.86
2018-03-30T04:02:59.593Z,988.89
2018-03-30T04:04:05.048Z,988.89
2018-03-30T04:05:11.038Z,988.93
2018-03-30T04:06:17.028Z,988.95
2018-03-30T04:07:23.032Z,988.94
2018-03-30T04:08:28.982Z,988.90
2018-03-30T04:09:34.964Z,988.92
2018-03-30T04:10:40.947Z,988.91
2018-03-30T04:11:46.938Z,988.93
2018-03-30T04:12:52.956Z,988.95
2018-03-30T04:13:58.905Z,988.94
2018-03-30T04:15:04.893Z,988.94
2018-03-30T04:16:10.944Z,988.98
2018-03-30T04:17:16.931Z,988.94
2018-03-30T04:18:22.847Z,988.94
2018-03-30T04:19:28.820Z,988.90
2018-03-30T04:20:34.786Z,988.90
2018-03-30T04:21:40.785Z,988.90
2018-03-30T04:22:46.742Z,988.92
2018-03-30T04:23:52.748Z,988.94
2018-03-30T04:24:58.700Z,988.96
2018-03-30T04:26:04.679Z,989.00
2018-03-30T04:27:10.694Z,989.02
2018-03-30T04:28:17.146Z,988.99
2018-03-30T04:29:22.611Z,988.99
2018-03-30T04:30:28.609Z,988.96
2018-03-30T04:31:34.580Z,988.98
2018-03-30T04:32:40.534Z,988.96
2018-03-30T04:33:46.534Z,989.00
2018-03-30T04:34:52.497Z,989.01
2018-03-30T04:35:58.471Z,988.99
2018-03-30T04:37:04.451Z,988.95
2018-03-30T04:38:10.427Z,989.04
2018-03-30T04:39:16.421Z,989.03
2018-03-30T04:40:22.369Z,988.98
2018-03-30T04:41:28.348Z,989.03
2018-03-30T04:42:34.345Z,989.00
2018-03-30T04:43:40.295Z,989.00
2018-03-30T04:44:46.782Z,989.02
2018-03-30T04:45:52.256Z,988.99
2018-03-30T04:46:58.247Z,988.97
2018-03-30T04:48:04.195Z,989.03
2018-03-30T04:49:10.196Z,989.00
2018-03-30T04:50:16.154Z,988.98
2018-03-30T04:51:22.129Z,988.97
2018-03-30T04:52:28.110Z,989.03
2018-03-30T04:53:34.084Z,988.96
2018-03-30T04:54:40.071Z,988.93
2018-03-30T04:55:46.021Z,988.94
2018-03-30T04:56:52.007Z,988.91
2018-03-30T04:57:57.982Z,988.92
2018-03-30T04:59:03.953Z,988.90
2018-03-30T05:00:09.947Z,988.88
2018-03-30T05:01:15.911Z,988.84
2018-03-30T05:02:21.870Z,988.82
2018-03-30T05:03:27.850Z,988.81
2018-03-30T05:04:33.815Z,988.82
2018-03-30T05:05:39.828Z,988.77
2018-03-30T05:06:45.780Z,988.78
2018-03-30T05:07:51.783Z,988.81
2018-03-30T05:08:57.723Z,988.81
2018-03-30T05:10:03.717Z,988.77
2018-03-30T05:11:09.672Z,988.82
2018-03-30T05:12:15.643Z,988.80
2018-03-30T05:13:21.620Z,988.78
2018-03-30T05:14:27.597Z,988.81
2018-03-30T05:15:33.588Z,988.83
2018-03-30T05:16:39.540Z,988.82
2018-03-30T05:17:45.523Z,988.84
2018-03-30T05:18:51.492Z,988.81
2018-03-30T05:19:57.952Z,988.79
2018-03-30T05:21:03.457Z,988.84
2018-03-30T05:22:09.415Z,988.85
2018-03-30T05:23:15.384Z,988.82
2018-03-30T05:24:21.360Z,988.85
2018-03-30T05:25:27.348Z,988.85
2018-03-30T05:26:33.330Z,988.86
2018-03-30T05:27:39.287Z,988.85
2018-03-30T05:28:45.248Z,988.83
2018-03-30T05:29:51.239Z,988.83
2018-03-30T05:30:57.232Z,988.85
2018-03-30T05:32:03.205Z,988.84
2018-03-30T05:33:09.147Z,988.78
2018-03-30T05:34:15.124Z,988.80
2018-03-30T05:35:21.107Z,988.79
2018-03-30T05:36:27.111Z,988.80
2018-03-30T05:37:33.065Z,988.81
2018-03-30T05:38:39.049Z,988.79
2018-03-30T05:39:45.057Z,988.77
2018-03-30T05:40:51.490Z,988.78
2018-03-30T05:41:57.012Z,988.80
2018-03-30T05:43:02.969Z,988.77
2018-03-30T05:44:08.951Z,988.81
2018-03-30T05:45:14.943Z,988.74
2018-03-30T05:46:21.022Z,988.72
2018-03-30T05:47:26.902Z,988.72
2018-03-30T05:48:32.902Z,988.71
2018-03-30T05:49:38.887Z,988.71
2018-03-30T05:50:44.872Z,988.68
2018-03-30T05:51:50.884Z,988.71
2018-03-30T05:52:56.865Z,988.68
2018-03-30T05:54:02.844Z,988.68
2018-03-30T05:55:08.822Z,988.67
2018-03-30T05:56:14.839Z,988.71
2018-03-30T05:57:20.823Z,988.66
2018-03-30T05:58:26.813Z,988.69
2018-03-30T05:59:32.813Z,988.68
2018-03-30T06:00:38.810Z,988.68
2018-03-30T06:01:44.839Z,988.63
2018-03-30T06:02:50.804Z,988.64
2018-03-30T06:03:56.808Z,988.64
2018-03-30T06:05:02.799Z,988.58
2018-03-30T06:06:08.804Z,988.58
2018-03-30T06:07:14.822Z,988.58
2018-03-30T06:08:21.309Z,988.58
2018-03-30T06:09:26.821Z,988.58
2018-03-30T06:10:32.823Z,988.61
2018-03-30T06:11:38.867Z,988.61
2018-03-30T06:12:44.852Z,988.61
2018-03-30T06:13:50.888Z,988.59
2018-03-30T06:14:56.850Z,988.60
2018-03-30T06:16:02.868Z,988.61
2018-03-30T06:17:08.904Z,988.59
2018-03-30T06:18:14.884Z,988.55
2018-03-30T06:19:20.907Z,988.57
2018-03-30T06:20:26.931Z,988.55
2018-03-30T06:21:32.942Z,988.56
2018-03-30T06:22:38.955Z,988.54
2018-03-30T06:23:44.954Z,988.57
2018-03-30T06:24:50.966Z,988.51
2018-03-30T06:25:56.999Z,988.52
2018-03-30T06:27:03.023Z,988.51
2018-03-30T06:28:09.024Z,988.47
2018-03-30T06:29:15.070Z,988.52
2018-03-30T06:30:21.055Z,988.51
2018-03-30T06:31:27.100Z,988.50
2018-03-30T06:32:33.093Z,988.51
2018-03-30T06:33:39.105Z,988.54
2018-03-30T06:34:45.129Z,988.52
2018-03-30T06:35:51.143Z,988.54
2018-03-30T06:36:57.177Z,988.52
2018-03-30T06:38:03.172Z,988.49
2018-03-30T06:39:09.181Z,988.46
2018-03-30T06:40:15.206Z,988.44
2018-03-30T06:41:21.715Z,988.49
2018-03-30T06:42:27.268Z,988.46
2018-03-30T06:43:33.272Z,988.52
2018-03-30T06:44:39.292Z,988.51
2018-03-30T06:45:45.305Z,988.53
2018-03-30T06:46:51.355Z,988.53
2018-03-30T06:47:57.364Z,988.52
2018-03-30T06:49:03.372Z,988.54
2018-03-30T06:50:09.929Z,988.51
2018-03-30T06:51:15.416Z,988.51
2018-03-30T06:52:21.462Z,988.50
2018-03-30T06:53:27.980Z,988.48
2018-03-30T06:54:33.969Z,988.52
2018-03-30T06:55:39.511Z,988.49
2018-03-30T06:56:45.563Z,988.49
2018-03-30T06:57:51.563Z,988.49
2018-03-30T06:58:57.573Z,988.47
2018-03-30T07:00:03.601Z,988.48
2018-03-30T07:01:09.640Z,988.50
2018-03-30T07:02:15.692Z,988.48
2018-03-30T07:03:21.702Z,988.49
2018-03-30T07:04:27.720Z,988.52
2018-03-30T07:05:33.760Z,988.52
2018-03-30T07:06:39.808Z,988.48
2018-03-30T07:07:45.823Z,988.48
2018-03-30T07:08:51.931Z,988.53
2018-03-30T07:09:57.893Z,988.51
2018-03-30T07:11:03.917Z,988.44
2018-03-30T07:12:09.991Z,988.47
2018-03-30T07:13:16.528Z,988.44
2018-03-30T07:14:22.536Z,988.43
2018-03-30T07:15:28.088Z,988.41
2018-03-30T07:16:34.176Z,988.38
2018-03-30T07:17:40.479Z,988.40
2018-03-30T07:18:46.217Z,988.36
2018-03-30T07:19:52.272Z,988.37
2018-03-30T07:20:58.319Z,988.38
2018-03-30T07:22:04.397Z,988.39
2018-03-30T07:23:10.418Z,988.29
2018-03-30T07:24:16.488Z,988.37
2018-03-30T07:25:22.537Z,988.31
2018-03-30T07:26:29.076Z,988.32
2018-03-30T07:27:34.670Z,988.29
2018-03-30T07:28:40.786Z,988.28
2018-03-30T07:29:46.773Z,988.26
2018-03-30T07:30:52.845Z,988.23
2018-03-30T07:31:58.933Z,988.21
2018-03-30T07:33:04.988Z,988.16
2018-03-30T07:34:11.033Z,988.09
2018-03-30T07:35:17.582Z,988.12
2018-03-30T07:36:23.167Z,988.09
2018-03-30T07:37:29.744Z,988.09
2018-03-30T07:38:35.303Z,988.10
2018-03-30T07:39:41.372Z,988.04
2018-03-30T07:40:47.436Z,988.08
2018-03-30T07:41:53.519Z,988.07
2018-03-30T07:42:59.615Z,988.06
2018-03-30T07:44:05.655Z,988.02
2018-03-30T07:45:11.736Z,988.05
2018-03-30T07:46:17.809Z,988.03
2018-03-30T07:47:23.898Z,988.02
2018-03-30T07:48:29.965Z,988.05
2018-03-30T07:49:36.022Z,988.03
2018-03-30T07:50:42.107Z,987.98
2018-03-30T07:51:48.187Z,987.99
2018-03-30T07:52:54.282Z,987.95
2018-03-30T07:54:00.834Z,987.95
2018-03-30T07:55:06.435Z,987.90
2018-03-30T07:56:12.512Z,987.91
2018-03-30T07:57:18.613Z,987.89
2018-03-30T07:58:24.732Z,987.96
2018-03-30T07:59:30.804Z,987.97
2018-03-30T08:00:36.906Z,987.95
2018-03-30T08:01:43.013Z,987.89
2018-03-30T08:02:49.121Z,987.87
2018-03-30T08:03:55.262Z,987.90
2018-03-30T08:05:01.360Z,987.88
2018-03-30T08:06:07.485Z,987.92
2018-03-30T08:07:13.616Z,987.88
2018-03-30T08:08:19.772Z,987.88
2018-03-30T08:09:25.941Z,987.91
2018-03-30T08:10:32.505Z,987.89
2018-03-30T08:11:38.129Z,987.83
2018-03-30T08:12:44.280Z,987.88
2018-03-30T08:13:50.436Z,987.85
2018-03-30T08:14:56.558Z,987.86
2018-03-30T08:16:02.704Z,987.85
2018-03-30T08:17:08.863Z,987.84
2018-03-30T08:18:15.010Z,987.87
2018-03-30T08:19:21.220Z,987.83
2018-03-30T08:20:27.318Z,987.79
2018-03-30T08:21:33.477Z,987.77
2018-03-30T08:22:39.637Z,987.73
2018-03-30T08:23:45.821Z,987.74
2018-03-30T08:24:51.962Z,987.74
2018-03-30T08:25:58.124Z,987.68
2018-03-30T08:27:04.787Z,987.68
2018-03-30T08:28:10.472Z,987.65
2018-03-30T08:29:16.673Z,987.61
2018-03-30T08:30:22.797Z,987.60
2018-03-30T08:31:28.960Z,987.60
2018-03-30T08:32:35.138Z,987.59
2018-03-30T08:33:41.316Z,987.58
2018-03-30T08:34:47.492Z,987.54
2018-03-30T08:35:53.658Z,987.55
2018-03-30T08:36:59.819Z,987.55
2018-03-30T08:38:05.998Z,987.54
2018-03-30T08:39:12.189Z,987.50
2018-03-30T08:40:18.353Z,987.46
2018-03-30T08:41:24.520Z,987.45
2018-03-30T08:42:31.210Z,987.47
2018-03-30T08:43:36.879Z,987.47
2018-03-30T08:44:43.084Z,987.44
2018-03-30T08:45:49.244Z,987.40
2018-03-30T08:46:55.439Z,987.37
2018-03-30T08:48:01.626Z,987.37
2018-03-30T08:49:07.812Z,987.38
2018-03-30T08:50:14.019Z,987.36
2018-03-30T08:51:20.183Z,987.40
2018-03-30T08:52:26.385Z,987.41
2018-03-30T08:53:32.586Z,987.36
2018-03-30T08:54:38.809Z,987.31
2018-03-30T08:55:44.984Z,987.30
2018-03-30T08:56:51.193Z,987.31
2018-03-30T08:57:57.395Z,987.30
2018-03-30T08:59:03.612Z,987.24
2018-03-30T09:00:09.838Z,987.30
2018-03-30T09:01:16.059Z,987.29
2018-03-30T09:02:22.256Z,987.24
2018-03-30T09:03:28.476Z,987.19
2018-03-30T09:04:34.702Z,987.17
2018-03-30T09:05:40.936Z,987.13
2018-03-30T09:06:47.159Z,987.12
2018-03-30T09:07:53.385Z,987.12
2018-03-30T09:08:59.636Z,987.11
2018-03-30T09:10:05.947Z,987.08
2018-03-30T09:11:12.115Z,987.08
2018-03-30T09:12:18.346Z,987.06
2018-03-30T09:13:24.586Z,987.07
2018-03-30T09:14:30.841Z,987.04
2018-03-30T09:15:37.116Z,987.04
2018-03-30T09:16:43.365Z,987.01
2018-03-30T09:17:49.614Z,986.99
2018-03-30T09:18:55.885Z,986.95
2018-03-30T09:20:02.155Z,986.92
2018-03-30T09:21:08.429Z,986.89
2018-03-30T09:22:14.678Z,986.93
2018-03-30T09:23:20.944Z,986.92
2018-03-30T09:24:27.729Z,986.92
2018-03-30T09:25:33.524Z,986.93
2018-03-30T09:26:39.803Z,986.89
2018-03-30T09:27:46.058Z,986.85
2018-03-30T09:28:52.341Z,986.84
2018-03-30T09:29:58.633Z,986.84
2018-03-30T09:31:04.946Z,986.83
2018-03-30T09:32:11.236Z,986.73
